Time;durP1;ratioP1;P1;durP2;ratioP2;P2;SDS_P1;SDS_P2;PMS_P1;PMS_P2;Temp;Humidity;BMP_temperature;BMP_pressure;BME280_temperature;BME280_humidity;BME280_pressure;Samples;Min_cycle;Max_cycle;Signal;HPM_P1;HPM_P2
2023/09/10 00:01:09;;;;;;;0.00;0.00;;;15.10;99.90;;;;;;5060589;28;20024;-76
2023/09/10 00:03:35;;;;;;;0.00;0.00;;;15.00;99.90;;;;;;5060770;28;20600;-76
2023/09/10 00:06:02;;;;;;;0.25;0.25;;;15.00;99.90;;;;;;5060441;28;20047;-77
2023/09/10 00:08:28;;;;;;;0.00;0.00;;;15.10;99.90;;;;;;5042832;28;20314;-76
2023/09/10 00:10:58;;;;;;;0.10;0.10;;;15.10;99.90;;;;;;5061198;28;20301;-76
2023/09/10 00:13:24;;;;;;;0.10;0.10;;;15.00;99.90;;;;;;5060775;28;20033;-76
2023/09/10 00:15:51;;;;;;;0.22;0.22;;;15.00;99.90;;;;;;5060339;28;20024;-78
2023/09/10 00:18:18;;;;;;;0.10;0.10;;;15.00;99.90;;;;;;5040591;28;20390;-76
2023/09/10 00:20:44;;;;;;;0.00;0.00;;;15.00;99.90;;;;;;5058398;28;20051;-76
2023/09/10 00:23:10;;;;;;;0.20;0.20;;;15.00;99.90;;;;;;5073867;28;20020;-78
2023/09/10 00:25:36;;;;;;;0.10;0.10;;;14.90;99.90;;;;;;5058287;28;20029;-77
2023/09/10 00:28:02;;;;;;;0.10;0.10;;;14.90;99.90;;;;;;5058475;28;20223;-76
2023/09/10 00:30:28;;;;;;;0.00;0.00;;;14.80;99.90;;;;;;5058118;28;20021;-79
2023/09/10 00:32:55;;;;;;;0.00;0.00;;;14.70;99.90;;;;;;5058614;28;20031;-76
2023/09/10 00:35:21;;;;;;;0.10;0.10;;;14.70;99.90;;;;;;5058047;28;20029;-77
2023/09/10 00:37:47;;;;;;;0.45;0.45;;;14.80;99.90;;;;;;5058248;28;20020;-77
2023/09/10 00:40:13;;;;;;;0.00;0.00;;;14.70;99.90;;;;;;5058484;28;20020;-87
2023/09/10 00:42:39;;;;;;;0.00;0.00;;;14.60;99.90;;;;;;5058359;28;20021;-82
2023/09/10 00:45:10;;;;;;;0.00;0.00;;;14.60;99.90;;;;;;5058277;28;20023;-79
2023/09/10 00:47:39;;;;;;;1.20;1.17;;;14.60;99.90;;;;;;5058422;28;20333;-77
2023/09/10 00:50:05;;;;;;;0.10;0.10;;;14.60;99.90;;;;;;5061024;28;20067;-79
2023/09/10 00:52:32;;;;;;;0.00;0.00;;;14.50;99.90;;;;;;5061756;28;20518;-80
2023/09/10 00:54:58;;;;;;;0.00;0.00;;;14.40;99.90;;;;;;5061816;28;20060;-84
2023/09/10 00:57:25;;;;;;;0.10;0.10;;;14.40;99.90;;;;;;5061167;28;20052;-76
2023/09/10 00:59:52;;;;;;;0.10;0.10;;;14.40;99.90;;;;;;5061557;28;20031;-79
2023/09/10 01:02:20;;;;;;;0.00;0.00;;;14.30;99.90;;;;;;5061387;28;20013;-77
2023/09/10 01:04:45;;;;;;;0.10;0.10;;;14.30;99.90;;;;;;5061056;28;20355;-82
2023/09/10 01:07:11;;;;;;;0.05;0.05;;;14.40;99.90;;;;;;5060838;28;20052;-77
2023/09/10 01:09:37;;;;;;;0.13;0.13;;;14.40;99.90;;;;;;5061651;28;20060;-76
2023/09/10 01:12:20;;;;;;;0.10;0.10;;;14.40;99.90;;;;;;5061217;28;20024;-76
2023/09/10 01:15:14;;;;;;;0.10;0.10;;;14.30;99.90;;;;;;5061436;28;20403;-80
2023/09/10 01:18:08;;;;;;;0.10;0.10;;;14.40;99.90;;;;;;5062033;28;20100;-88
2023/09/10 01:21:02;;;;;;;0.10;0.10;;;14.40;99.90;;;;;;5061331;28;20107;-78
2023/09/10 01:23:44;;;;;;;0.10;0.10;;;14.40;99.90;;;;;;5062059;28;20297;-77
2023/09/10 01:26:10;;;;;;;0.03;0.03;;;14.30;99.90;;;;;;5061487;28;20294;-77
2023/09/10 01:28:36;;;;;;;0.03;0.03;;;14.30;99.90;;;;;;5061765;28;20360;-81
2023/09/10 01:31:01;;;;;;;0.00;0.00;;;14.30;99.90;;;;;;5061778;28;20112;-77
2023/09/10 01:33:36;;;;;;;0.10;0.10;;;14.00;99.90;;;;;;5060973;28;20116;-75
2023/09/10 01:36:26;;;;;;;0.63;0.63;;;14.20;99.90;;;;;;5043493;28;20021;-80
2023/09/10 01:39:17;;;;;;;0.03;0.03;;;14.20;99.90;;;;;;5060582;28;20136;-81
2023/09/10 01:41:46;;;;;;;0.00;0.00;;;14.20;99.90;;;;;;5060143;28;20032;-76
2023/09/10 01:44:15;;;;;;;1.08;1.08;;;14.30;99.90;;;;;;5060612;28;20332;-76
2023/09/10 01:46:42;;;;;;;0.10;0.10;;;14.10;99.90;;;;;;5060952;28;20013;-75
2023/09/10 01:49:08;;;;;;;0.00;0.00;;;14.10;99.90;;;;;;5043145;28;20363;-82
2023/09/10 01:51:34;;;;;;;0.10;0.10;;;14.00;99.90;;;;;;5060382;28;20290;-82
2023/09/10 01:54:00;;;;;;;0.10;0.10;;;14.00;99.90;;;;;;5060557;28;20111;-76
2023/09/10 01:56:25;;;;;;;0.55;0.55;;;13.90;99.90;;;;;;5041891;28;20032;-79
2023/09/10 01:58:51;;;;;;;0.10;0.10;;;13.90;99.90;;;;;;5041746;28;20457;-76
2023/09/10 02:01:17;;;;;;;0.10;0.10;;;13.90;99.90;;;;;;5059880;28;20506;-77
2023/09/10 02:03:43;;;;;;;0.10;0.10;;;13.80;99.90;;;;;;5060920;28;20395;-80
2023/09/10 02:06:09;;;;;;;0.10;0.10;;;;;;;;;;5062957;28;20028;-76
2023/09/10 02:08:35;;;;;;;0.10;0.10;;;13.80;99.90;;;;;;5052517;28;20037;-75
2023/09/10 02:11:04;;;;;;;0.30;0.30;;;13.80;99.90;;;;;;5060853;28;20376;-78
2023/09/10 02:13:30;;;;;;;0.80;0.80;;;13.70;99.90;;;;;;5060673;28;20024;-83
2023/09/10 02:15:56;;;;;;;0.10;0.10;;;13.70;99.90;;;;;;5060290;28;20032;-78
2023/09/10 02:18:22;;;;;;;0.10;0.10;;;13.70;99.90;;;;;;5061710;28;20359;-77
2023/09/10 02:20:48;;;;;;;0.00;0.00;;;13.60;99.90;;;;;;5061066;28;20079;-76
2023/09/10 02:23:14;;;;;;;0.10;0.10;;;13.60;99.90;;;;;;5060245;28;20206;-76
2023/09/10 02:25:40;;;;;;;0.10;0.10;;;13.60;99.90;;;;;;5060710;28;20030;-78
2023/09/10 02:28:07;;;;;;;0.10;0.10;;;13.60;99.90;;;;;;5060502;28;20084;-76
2023/09/10 02:30:40;;;;;;;0.10;0.10;;;13.50;99.90;;;;;;5060972;28;20546;-78
2023/09/10 02:33:06;;;;;;;0.00;0.00;;;13.50;99.90;;;;;;5043379;28;20032;-78
2023/09/10 02:35:32;;;;;;;0.00;0.00;;;13.50;99.90;;;;;;5061448;28;20059;-78
2023/09/10 02:37:58;;;;;;;0.10;0.10;;;12.30;99.90;;;;;;5042100;28;20060;-77
2023/09/10 02:40:23;;;;;;;0.10;0.10;;;13.50;99.90;;;;;;5060485;28;20317;-77
2023/09/10 02:42:49;;;;;;;0.10;0.10;;;13.30;99.90;;;;;;5060664;28;20063;-81
2023/09/10 02:45:15;;;;;;;0.10;0.10;;;13.40;99.90;;;;;;5059789;28;20048;-75
2023/09/10 02:47:41;;;;;;;0.10;0.10;;;12.50;99.90;;;;;;5059245;28;20328;-79
2023/09/10 02:50:07;;;;;;;0.10;0.10;;;13.50;99.90;;;;;;5059588;28;20028;-80
2023/09/10 02:52:33;;;;;;;0.00;0.00;;;13.50;99.90;;;;;;5059981;28;20328;-78
2023/09/10 02:54:59;;;;;;;0.10;0.10;;;13.40;99.90;;;;;;5042088;28;20150;-80
2023/09/10 02:57:25;;;;;;;0.00;0.00;;;13.40;99.90;;;;;;5059813;28;20106;-79
2023/09/10 02:59:51;;;;;;;0.13;0.13;;;13.40;99.90;;;;;;5059392;28;20032;-80
2023/09/10 03:02:17;;;;;;;0.10;0.10;;;13.40;99.90;;;;;;5061083;28;20025;-79
2023/09/10 03:04:42;;;;;;;0.10;0.10;;;13.40;99.90;;;;;;5062322;28;20029;-84
2023/09/10 03:07:08;;;;;;;0.00;0.00;;;13.40;99.90;;;;;;5062611;28;20008;-85
2023/09/10 03:09:34;;;;;;;0.05;0.05;;;13.40;99.90;;;;;;5061482;28;20115;-84
2023/09/10 03:12:23;;;;;;;0.00;0.00;;;13.30;99.90;;;;;;5062286;28;20497;-81
2023/09/10 03:14:49;;;;;;;0.00;0.00;;;13.30;99.90;;;;;;5060263;28;20268;-78
2023/09/10 03:17:15;;;;;;;0.00;0.00;;;13.30;99.90;;;;;;5061398;28;20210;-81
2023/09/10 03:19:43;;;;;;;0.00;0.00;;;13.30;99.90;;;;;;5062654;28;20032;-77
2023/09/10 03:22:11;;;;;;;0.10;0.10;;;13.20;99.90;;;;;;5067986;28;20028;-78
2023/09/10 03:24:38;;;;;;;0.10;0.10;;;13.30;99.90;;;;;;5066354;28;20025;-77
2023/09/10 03:27:05;;;;;;;0.08;0.08;;;13.20;99.90;;;;;;5062040;28;20048;-77
2023/09/10 03:29:33;;;;;;;0.10;0.10;;;13.20;99.90;;;;;;5046382;28;20024;-81
2023/09/10 03:32:20;;;;;;;0.10;0.10;;;13.10;99.90;;;;;;5072553;28;20024;-78
2023/09/10 03:34:45;;;;;;;0.10;0.10;;;13.10;99.90;;;;;;5022782;28;20116;-78
2023/09/10 03:37:11;;;;;;;0.05;0.05;;;13.10;99.90;;;;;;5023798;28;20026;-78
2023/09/10 03:39:43;;;;;;;0.10;0.10;;;13.10;99.90;;;;;;5022095;28;20196;-78
2023/09/10 03:42:16;;;;;;;0.45;0.45;;;13.10;99.90;;;;;;5021358;28;20036;-79
2023/09/10 03:44:46;;;;;;;0.00;0.00;;;13.10;99.90;;;;;;5027137;28;20032;-78
2023/09/10 03:47:12;;;;;;;0.10;0.10;;;13.10;99.90;;;;;;5022081;28;20025;-77
2023/09/10 03:49:38;;;;;;;0.00;0.00;;;13.10;99.90;;;;;;5018424;28;20388;-77
2023/09/10 03:52:16;;;;;;;0.03;0.03;;;13.10;99.90;;;;;;5020089;28;20644;-77
2023/09/10 03:54:41;;;;;;;1.23;1.13;;;13.10;99.90;;;;;;5017843;28;20049;-76
2023/09/10 03:57:07;;;;;;;0.03;0.03;;;13.10;99.90;;;;;;5019812;28;20052;-77
2023/09/10 03:59:33;;;;;;;0.05;0.05;;;13.10;99.90;;;;;;5018712;28;20374;-78
2023/09/10 04:02:00;;;;;;;0.10;0.10;;;13.10;99.90;;;;;;5018361;28;20037;-79
2023/09/10 04:04:26;;;;;;;0.10;0.10;;;13.10;99.90;;;;;;5017330;28;20112;-81
2023/09/10 04:06:51;;;;;;;0.10;0.10;;;13.10;99.90;;;;;;5039965;28;20132;-78
2023/09/10 04:09:18;;;;;;;0.00;0.00;;;13.10;99.90;;;;;;5059361;28;20413;-77
2023/09/10 04:11:43;;;;;;;0.10;0.10;;;13.10;99.90;;;;;;5059597;28;20025;-77
2023/09/10 04:14:10;;;;;;;0.10;0.10;;;13.10;99.90;;;;;;5041131;28;20036;-78
2023/09/10 04:16:35;;;;;;;0.22;0.22;;;13.10;99.90;;;;;;5058432;28;20016;-79
2023/09/10 04:19:02;;;;;;;0.10;0.10;;;13.10;99.90;;;;;;5040028;28;20059;-76
2023/09/10 04:21:28;;;;;;;1.73;1.65;;;13.20;99.90;;;;;;5058816;28;20087;-79
2023/09/10 04:23:54;;;;;;;0.10;0.10;;;13.10;99.90;;;;;;5059086;28;20318;-78
2023/09/10 04:26:20;;;;;;;1.95;1.85;;;13.10;99.90;;;;;;5062116;28;20075;-77
2023/09/10 04:28:45;;;;;;;0.10;0.10;;;13.10;99.90;;;;;;5043946;28;20029;-77
2023/09/10 04:31:19;;;;;;;0.10;0.10;;;13.10;99.90;;;;;;5061958;28;20043;-78
2023/09/10 04:33:45;;;;;;;;;;;13.10;99.90;;;;;;5062682;28;20060;-79
2023/09/10 04:36:13;;;;;;;0.10;0.10;;;13.10;99.90;;;;;;5062436;28;19905;-80
2023/09/10 04:38:40;;;;;;;0.00;0.00;;;13.10;99.90;;;;;;5063158;28;20248;-78
2023/09/10 04:41:06;;;;;;;0.10;0.10;;;13.00;99.90;;;;;;5048463;28;20020;-78
2023/09/10 04:43:32;;;;;;;0.00;0.00;;;12.90;99.90;;;;;;5064568;28;20490;-79
2023/09/10 04:45:58;;;;;;;2.40;2.30;;;12.90;99.90;;;;;;5065052;28;20107;-78
2023/09/10 04:48:24;;;;;;;0.00;0.00;;;12.90;99.90;;;;;;5066905;28;20059;-77
2023/09/10 04:50:51;;;;;;;0.00;0.00;;;12.90;99.90;;;;;;5066080;28;20028;-78
2023/09/10 04:53:17;;;;;;;0.10;0.10;;;12.90;99.90;;;;;;5080060;28;20618;-77
2023/09/10 04:55:43;;;;;;;0.10;0.10;;;12.90;99.90;;;;;;5063932;28;20040;-78
2023/09/10 04:58:12;;;;;;;0.00;0.00;;;12.90;99.90;;;;;;5079681;28;20460;-77
2023/09/10 05:00:41;;;;;;;0.03;0.03;;;13.10;99.90;;;;;;5044083;28;20024;-77
2023/09/10 05:03:07;;;;;;;0.10;0.10;;;12.90;99.90;;;;;;5063309;28;20107;-77
2023/09/10 05:05:33;;;;;;;0.10;0.10;;;12.90;99.90;;;;;;5064475;28;20241;-78
2023/09/10 05:07:58;;;;;;;0.17;0.17;;;12.90;99.90;;;;;;5063101;28;20028;-78
2023/09/10 05:10:24;;;;;;;0.10;0.10;;;12.90;99.90;;;;;;5047384;28;20041;-78
2023/09/10 05:12:57;;;;;;;0.00;0.00;;;12.90;99.90;;;;;;5065099;28;20019;-78
2023/09/10 05:15:26;;;;;;;0.00;0.00;;;13.00;99.90;;;;;;5047196;28;20029;-77
2023/09/10 05:17:52;;;;;;;0.10;0.10;;;13.00;99.90;;;;;;5064797;28;20109;-77
2023/09/10 05:20:18;;;;;;;1.45;1.38;;;13.00;99.90;;;;;;5064499;28;20436;-78
2023/09/10 05:22:44;;;;;;;0.10;0.10;;;13.00;99.90;;;;;;5062930;28;20547;-78
2023/09/10 05:25:10;;;;;;;0.00;0.00;;;13.00;99.90;;;;;;5066515;28;20540;-77
2023/09/10 05:27:37;;;;;;;0.00;0.00;;;13.00;99.90;;;;;;5064285;28;20330;-78
2023/09/10 05:30:05;;;;;;;0.10;0.10;;;13.10;99.90;;;;;;5044940;28;20436;-78
2023/09/10 05:32:32;;;;;;;0.13;0.13;;;13.20;99.90;;;;;;5062117;28;20024;-78
2023/09/10 05:34:57;;;;;;;0.22;0.22;;;13.30;99.90;;;;;;5061988;28;20059;-78
2023/09/10 05:37:24;;;;;;;0.40;0.40;;;13.40;99.90;;;;;;5060844;28;20029;-78
2023/09/10 05:39:50;;;;;;;0.10;0.10;;;13.40;99.90;;;;;;5061394;28;20024;-79
2023/09/10 05:42:15;;;;;;;0.10;0.10;;;13.50;99.90;;;;;;5062091;28;20017;-80
2023/09/10 05:44:41;;;;;;;0.03;0.03;;;13.60;99.90;;;;;;5062165;28;20054;-83
2023/09/10 05:47:07;;;;;;;0.10;0.10;;;13.70;99.90;;;;;;5061769;28;20028;-86
2023/09/10 05:49:35;;;;;;;0.10;0.10;;;12.70;99.90;;;;;;5061554;28;20114;-82
2023/09/10 05:52:01;;;;;;;0.10;0.10;;;13.90;99.90;;;;;;5061982;28;20028;-79
2023/09/10 05:54:26;;;;;;;0.00;0.00;;;14.00;99.90;;;;;;5061799;28;20040;-81
2023/09/10 05:56:52;;;;;;;10.05;4.75;;;14.00;99.90;;;;;;5062204;28;20029;-78
2023/09/10 05:59:18;;;;;;;3.50;2.65;;;14.10;99.90;;;;;;5062196;28;20017;-78
2023/09/10 06:01:44;;;;;;;1.85;1.80;;;13.80;99.90;;;;;;5062253;28;20021;-78
2023/09/10 06:04:10;;;;;;;6.40;6.00;;;14.10;99.90;;;;;;5064122;28;20017;-78
2023/09/10 06:06:36;;;;;;;27.98;6.85;;;14.30;99.90;;;;;;5062837;28;20025;-78
2023/09/10 06:09:03;;;;;;;9.15;4.68;;;14.40;99.90;;;;;;5062353;28;20035;-79
2023/09/10 06:11:30;;;;;;;1.98;1.88;;;14.50;99.90;;;;;;5061605;28;20044;-78
2023/09/10 06:13:55;;;;;;;2.88;2.78;;;14.70;99.90;;;;;;5060375;28;20056;-78
2023/09/10 06:16:21;;;;;;;6.93;6.60;;;14.80;99.90;;;;;;5060660;28;20059;-78
2023/09/10 06:18:47;;;;;;;0.17;0.17;;;14.80;99.90;;;;;;5060571;28;20083;-79
2023/09/10 06:21:13;;;;;;;1.85;1.75;;;15.00;99.90;;;;;;5061038;28;20027;-79
2023/09/10 06:23:38;;;;;;;0.10;0.10;;;15.10;99.90;;;;;;5041394;28;20089;-78
2023/09/10 06:26:04;;;;;;;0.57;0.57;;;15.20;99.90;;;;;;5059848;28;20294;-76
2023/09/10 06:28:30;;;;;;;0.63;0.63;;;15.30;99.90;;;;;;5059253;28;20024;-80
2023/09/10 06:30:56;;;;;;;1.55;1.50;;;15.40;99.90;;;;;;5059807;28;20044;-83
2023/09/10 06:33:22;;;;;;;2.38;1.98;;;15.40;99.90;;;;;;5059237;28;20024;-76
2023/09/10 06:35:47;;;;;;;0.10;0.10;;;15.50;99.90;;;;;;5059310;28;20028;-75
2023/09/10 06:38:13;;;;;;;7.43;1.45;;;15.60;99.90;;;;;;5041285;28;20024;-75
2023/09/10 06:40:39;;;;;;;0.43;0.43;;;15.80;99.90;;;;;;5059347;28;20040;-78
2023/09/10 06:43:06;;;;;;;0.30;0.30;;;15.90;99.90;;;;;;5041598;28;20095;-76
2023/09/10 06:45:32;;;;;;;0.30;0.30;;;16.00;99.90;;;;;;5074449;28;20020;-77
2023/09/10 06:47:57;;;;;;;0.00;0.00;;;16.70;99.90;;;;;;5041148;28;20040;-76
2023/09/10 06:50:23;;;;;;;2.25;2.15;;;18.00;99.90;;;;;;5061369;28;20021;-76
2023/09/10 06:52:49;;;;;;;0.10;0.10;;;16.30;99.90;;;;;;5042252;28;20051;-76
2023/09/10 06:55:16;;;;;;;0.10;0.10;;;14.70;99.90;;;;;;5060270;28;20036;-76
2023/09/10 06:57:42;;;;;;;0.43;0.43;;;16.50;99.90;;;;;;5061200;28;20733;-76
2023/09/10 07:00:09;;;;;;;0.10;0.10;;;16.70;99.90;;;;;;5042626;28;20032;-75
2023/09/10 07:02:34;;;;;;;1.30;1.30;;;16.90;99.90;;;;;;5059906;28;20608;-78
2023/09/10 07:05:00;;;;;;;0.10;0.10;;;17.00;99.90;;;;;;5062967;28;20497;-79
2023/09/10 07:07:26;;;;;;;0.00;0.00;;;17.10;99.90;;;;;;5061732;28;20225;-79
2023/09/10 07:09:51;;;;;;;0.15;0.15;;;17.20;99.90;;;;;;5076806;28;20056;-81
2023/09/10 07:12:19;;;;;;;0.10;0.10;;;17.30;99.90;;;;;;5060078;28;20066;-77
2023/09/10 07:14:45;;;;;;;0.30;0.30;;;17.40;99.90;;;;;;5060795;28;20024;-77
2023/09/10 07:17:11;;;;;;;2.05;1.95;;;17.50;99.90;;;;;;5059518;28;20236;-77
2023/09/10 07:19:36;;;;;;;0.00;0.00;;;17.60;99.90;;;;;;5074771;28;20611;-84
2023/09/10 07:22:02;;;;;;;0.10;0.10;;;17.70;99.90;;;;;;5059478;28;20624;-81
2023/09/10 07:24:28;;;;;;;1.08;0.85;;;17.90;99.90;;;;;;5059616;28;20085;-81
2023/09/10 07:26:54;;;;;;;0.05;0.05;;;18.00;99.90;;;;;;5059468;28;20524;-76
2023/09/10 07:29:20;;;;;;;0.00;0.00;;;18.00;99.90;;;;;;5074973;28;20020;-76
2023/09/10 07:31:46;;;;;;;0.15;0.15;;;18.20;99.90;;;;;;5041053;28;20401;-78
2023/09/10 07:34:11;;;;;;;1.55;1.45;;;18.30;99.90;;;;;;5060931;28;20020;-76
2023/09/10 07:36:38;;;;;;;0.10;0.10;;;18.40;99.90;;;;;;5060709;28;20085;-79
2023/09/10 07:39:04;;;;;;;0.22;0.22;;;18.50;99.90;;;;;;5060306;28;20024;-77
2023/09/10 07:41:30;;;;;;;0.00;0.00;;;18.70;99.90;;;;;;5060664;28;20241;-78
2023/09/10 07:43:56;;;;;;;0.00;0.00;;;18.80;99.90;;;;;;5062183;28;20541;-77
2023/09/10 07:46:21;;;;;;;0.63;0.63;;;19.00;99.90;;;;;;5078010;28;20021;-77
2023/09/10 07:48:47;;;;;;;0.47;0.47;;;19.20;99.90;;;;;;5062979;28;20385;-78
2023/09/10 07:51:13;;;;;;;0.10;0.10;;;16.50;99.90;;;;;;5042994;28;20020;-77
2023/09/10 07:53:39;;;;;;;0.00;0.00;;;19.50;99.90;;;;;;5059881;28;20024;-79
2023/09/10 07:56:05;;;;;;;0.08;0.08;;;19.50;99.90;;;;;;5060096;28;20029;-78
2023/09/10 07:58:32;;;;;;;0.00;0.00;;;19.60;99.90;;;;;;5058367;28;20221;-77
2023/09/10 08:00:58;;;;;;;0.10;0.10;;;19.70;99.90;;;;;;5042535;28;20328;-79
2023/09/10 08:03:24;;;;;;;1.85;1.08;;;19.80;99.90;;;;;;5060000;28;20101;-84
2023/09/10 08:05:49;;;;;;;0.00;0.00;;;19.90;99.90;;;;;;5057964;28;20505;-77
2023/09/10 08:08:15;;;;;;;0.20;0.20;;;20.10;99.90;;;;;;5057755;28;20107;-82
2023/09/10 08:10:44;;;;;;;0.68;0.68;;;20.20;99.90;;;;;;5057816;28;20111;-76
2023/09/10 08:13:12;;;;;;;0.10;0.10;;;20.50;99.90;;;;;;5058532;28;20175;-76
2023/09/10 08:15:38;;;;;;;0.00;0.00;;;20.40;99.90;;;;;;5040742;28;20032;-77
2023/09/10 08:18:10;;;;;;;0.10;0.10;;;20.60;99.90;;;;;;5059376;28;20234;-77
2023/09/10 08:20:40;;;;;;;0.70;0.68;;;20.60;99.90;;;;;;5060520;28;20028;-76
2023/09/10 08:23:07;;;;;;;1.10;1.08;;;20.60;99.90;;;;;;5059840;28;20016;-77
2023/09/10 08:25:32;;;;;;;0.10;0.10;;;20.70;99.90;;;;;;5060514;28;20056;-77
2023/09/10 08:27:59;;;;;;;0.00;0.00;;;19.80;99.90;;;;;;5058857;28;20540;-76
2023/09/10 08:30:26;;;;;;;0.30;0.30;;;20.90;99.90;;;;;;5041807;28;20480;-77
2023/09/10 08:32:52;;;;;;;0.20;0.20;;;21.00;99.90;;;;;;5041910;28;20033;-77
2023/09/10 08:35:19;;;;;;;0.03;0.03;;;22.90;99.90;;;;;;5058135;28;20561;-77
2023/09/10 08:37:45;;;;;;;0.55;0.55;;;21.50;99.90;;;;;;5057356;28;20027;-76
2023/09/10 08:40:12;;;;;;;0.00;0.00;;;21.60;99.90;;;;;;5072818;28;20021;-76
2023/09/10 08:43:10;;;;;;;0.00;0.00;;;21.60;99.90;;;;;;5039312;28;20016;-76
2023/09/10 08:45:36;;;;;;;2.35;1.30;;;21.70;99.90;;;;;;5057182;28;20063;-77
2023/09/10 08:48:04;;;;;;;0.98;0.98;;;21.90;99.90;;;;;;5039377;28;20662;-76
2023/09/10 08:50:31;;;;;;;0.20;0.20;;;22.00;99.90;;;;;;5058019;28;20063;-76
2023/09/10 08:52:57;;;;;;;0.08;0.08;;;22.20;99.90;;;;;;5057507;28;20685;-76
2023/09/10 08:55:25;;;;;;;0.30;0.25;;;22.20;99.90;;;;;;5040676;28;20033;-76
2023/09/10 08:57:56;;;;;;;0.00;0.00;;;21.60;99.90;;;;;;5058274;28;20017;-78
2023/09/10 09:00:23;;;;;;;9.52;2.65;;;22.50;99.90;;;;;;5039370;28;20383;-76
2023/09/10 09:02:49;;;;;;;0.10;0.10;;;22.60;99.90;;;;;;5057869;28;20015;-76
2023/09/10 09:05:15;;;;;;;0.57;0.57;;;22.60;99.90;;;;;;5075439;28;20501;-75
2023/09/10 09:07:55;;;;;;;0.10;0.10;;;22.60;99.90;;;;;;5072239;28;20028;-76
2023/09/10 09:10:29;;;;;;;0.00;0.00;;;22.80;99.90;;;;;;5040344;28;20333;-75
2023/09/10 09:12:58;;;;;;;0.20;0.20;;;23.00;99.90;;;;;;5042950;28;20232;-76
2023/09/10 09:15:25;;;;;;;0.10;0.10;;;23.30;99.40;;;;;;5060957;28;20033;-77
2023/09/10 09:17:54;;;;;;;0.03;0.03;;;23.30;99.00;;;;;;5043263;28;20028;-75
2023/09/10 09:20:21;;;;;;;0.10;0.10;;;23.40;99.00;;;;;;5043166;28;20035;-76
2023/09/10 09:22:50;;;;;;;0.08;0.08;;;23.30;98.90;;;;;;5062239;28;20025;-77
2023/09/10 09:25:16;;;;;;;0.85;0.52;;;23.50;98.80;;;;;;5061958;28;20086;-76
2023/09/10 09:27:43;;;;;;;0.08;0.08;;;23.70;98.10;;;;;;5077557;28;20041;-75
2023/09/10 09:30:11;;;;;;;0.47;0.47;;;23.60;97.80;;;;;;5043861;28;20069;-76
2023/09/10 09:32:39;;;;;;;0.30;0.30;;;23.80;97.60;;;;;;5042968;28;20043;-76
2023/09/10 09:35:09;;;;;;;0.00;0.00;;;23.90;97.30;;;;;;5062524;28;20406;-75
2023/09/10 09:37:36;;;;;;;0.22;0.22;;;24.20;97.10;;;;;;5062685;28;20016;-79
2023/09/10 09:40:09;;;;;;;0.10;0.10;;;24.30;96.90;;;;;;5063244;28;20027;-78
2023/09/10 09:42:38;;;;;;;0.00;0.00;;;24.50;96.60;;;;;;5062893;28;20012;-77
2023/09/10 09:45:05;;;;;;;0.52;0.52;;;24.40;96.50;;;;;;5060850;28;20031;-76
2023/09/10 09:47:31;;;;;;;0.10;0.10;;;24.60;96.40;;;;;;5060266;28;20081;-76
2023/09/10 09:49:57;;;;;;;1.85;1.25;;;24.60;95.60;;;;;;5060007;28;20111;-76
2023/09/10 09:52:23;;;;;;;0.00;0.00;;;24.80;95.10;;;;;;5074673;28;20109;-76
2023/09/10 09:54:49;;;;;;;0.00;0.00;;;24.70;95.00;;;;;;5059842;28;20037;-77
2023/09/10 09:57:16;;;;;;;1.10;0.90;;;25.00;94.90;;;;;;5060270;28;20328;-75
2023/09/10 09:59:43;;;;;;;0.65;0.65;;;25.20;94.30;;;;;;5075553;28;20028;-76
2023/09/10 10:02:17;;;;;;;0.00;0.00;;;26.80;94.30;;;;;;5061083;28;20031;-78
2023/09/10 10:04:44;;;;;;;0.10;0.10;;;25.30;93.40;;;;;;5042511;28;20028;-76
2023/09/10 10:07:12;;;;;;;0.15;0.15;;;25.20;93.20;;;;;;5060817;28;20052;-76
2023/09/10 10:09:40;;;;;;;0.50;0.40;;;25.40;93.70;;;;;;5060949;28;20036;-78
2023/09/10 10:12:07;;;;;;;0.50;0.50;;;24.90;93.10;;;;;;5062158;28;20551;-76
2023/09/10 10:14:35;;;;;;;0.30;0.30;;;25.70;92.90;;;;;;5061227;28;20062;-77
2023/09/10 10:17:01;;;;;;;0.00;0.00;;;25.80;92.10;;;;;;5061469;28;20017;-77
2023/09/10 10:19:30;;;;;;;0.00;0.00;;;25.80;92.00;;;;;;5062338;28;20032;-77
2023/09/10 10:21:57;;;;;;;0.00;0.00;;;25.90;91.20;;;;;;5042057;28;20103;-80
2023/09/10 10:24:23;;;;;;;0.10;0.10;;;26.00;91.70;;;;;;5042258;28;20628;-76
2023/09/10 10:26:51;;;;;;;2.25;0.55;;;26.10;90.80;;;;;;5043153;28;20067;-76
2023/09/10 10:29:21;;;;;;;0.10;0.10;;;26.20;90.20;;;;;;5061160;28;20150;-76
2023/09/10 10:32:17;;;;;;;0.00;0.00;;;26.30;90.40;;;;;;5061443;28;20024;-76
2023/09/10 10:34:53;;;;;;;1.92;0.65;;;27.00;90.70;;;;;;4963821;28;20252;-76
2023/09/10 10:37:30;;;;;;;0.00;0.00;;;26.70;90.10;;;;;;4960979;28;20467;-76
2023/09/10 10:40:12;;;;;;;0.40;0.35;;;27.30;89.40;;;;;;4977694;28;20046;-76
2023/09/10 10:43:03;;;;;;;0.10;0.10;;;26.70;87.60;;;;;;4976819;28;20066;-75
2023/09/10 10:45:30;;;;;;;1.20;0.70;;;26.80;87.10;;;;;;4960119;28;20037;-76
2023/09/10 10:48:02;;;;;;;0.00;0.00;;;27.10;85.80;;;;;;4977519;28;20034;-76
2023/09/10 10:50:31;;;;;;;0.00;0.00;;;27.30;86.10;;;;;;4960171;28;20740;-76
2023/09/10 10:53:10;;;;;;;0.00;0.00;;;27.30;85.40;;;;;;4961260;28;20050;-76
2023/09/10 10:55:38;;;;;;;0.00;0.00;;;27.60;84.70;;;;;;4976844;28;20389;-77
2023/09/10 10:58:04;;;;;;;0.00;0.00;;;27.80;85.50;;;;;;4977896;28;20034;-77
2023/09/10 11:00:31;;;;;;;4.60;2.55;;;28.10;84.10;;;;;;4960899;28;20286;-78
2023/09/10 11:03:14;;;;;;;0.00;0.00;;;28.10;82.40;;;;;;4961574;28;20289;-77
2023/09/10 11:05:57;;;;;;;0.10;0.05;;;28.20;82.00;;;;;;4977218;28;20058;-80
2023/09/10 11:08:26;;;;;;;;;;;28.40;81.10;;;;;;4979404;28;20551;-78
2023/09/10 11:10:53;;;;;;;0.45;0.45;;;28.70;80.40;;;;;;4992788;28;19943;-76
2023/09/10 11:13:19;;;;;;;0.00;0.00;;;28.50;79.80;;;;;;5041225;28;20153;-78
2023/09/10 11:16:04;;;;;;;0.65;0.57;;;28.70;79.40;;;;;;5059887;28;20529;-77
2023/09/10 11:18:36;;;;;;;0.22;0.22;;;29.00;80.00;;;;;;5064179;28;20030;-77
2023/09/10 11:21:03;;;;;;;0.03;0.03;;;29.20;77.40;;;;;;5041208;28;20055;-76
2023/09/10 11:23:30;;;;;;;0.00;0.00;;;29.30;77.60;;;;;;5058633;28;20298;-77
2023/09/10 11:26:14;;;;;;;1.33;0.82;;;29.40;77.30;;;;;;5059223;28;20020;-77
2023/09/10 11:29:03;;;;;;;0.00;0.00;;;29.80;76.30;;;;;;5058861;28;20033;-76
2023/09/10 11:31:39;;;;;;;0.10;0.10;;;29.70;75.30;;;;;;5059754;28;20028;-78
2023/09/10 11:34:17;;;;;;;0.20;0.20;;;29.80;74.70;;;;;;5058269;28;20348;-79
2023/09/10 11:36:48;;;;;;;0.95;0.85;;;30.00;75.00;;;;;;5058872;28;20428;-77
2023/09/10 11:39:15;;;;;;;0.00;0.00;;;30.20;73.80;;;;;;5060773;28;20032;-77
2023/09/10 11:41:46;;;;;;;0.80;0.52;;;30.30;73.30;;;;;;5041299;28;20060;-77
2023/09/10 11:44:12;;;;;;;0.35;0.30;;;30.40;71.70;;;;;;5040546;28;20024;-77
2023/09/10 11:46:38;;;;;;;0.30;0.28;;;31.50;72.70;;;;;;5041331;28;20035;-77
2023/09/10 11:49:04;;;;;;;0.70;0.70;;;30.30;72.10;;;;;;5059868;28;20016;-77
2023/09/10 11:51:30;;;;;;;0.43;0.30;;;30.50;71.10;;;;;;5024491;28;20340;-77
2023/09/10 11:53:59;;;;;;;0.25;0.22;;;30.60;71.90;;;;;;5058125;28;20024;-77
2023/09/10 11:56:26;;;;;;;0.22;0.22;;;30.80;70.10;;;;;;5040301;28;20050;-77
2023/09/10 11:58:55;;;;;;;0.00;0.00;;;30.80;72.10;;;;;;5058891;28;20510;-77
2023/09/10 12:01:21;;;;;;;0.55;0.45;;;31.00;69.40;;;;;;5058929;28;20047;-77
2023/09/10 12:03:48;;;;;;;0.00;0.00;;;31.20;68.80;;;;;;5061745;28;20044;-77
2023/09/10 12:06:15;;;;;;;0.35;0.28;;;31.30;69.20;;;;;;5042954;28;20013;-80
2023/09/10 12:08:41;;;;;;;1.50;1.40;;;31.30;69.40;;;;;;5058045;28;20021;-81
2023/09/10 12:11:09;;;;;;;0.30;0.30;;;31.60;68.40;;;;;;5058712;28;20270;-78
2023/09/10 12:13:36;;;;;;;0.10;0.10;;;31.70;67.90;;;;;;5059099;28;20021;-78
2023/09/10 12:16:03;;;;;;;0.57;0.47;;;32.00;68.30;;;;;;5041786;28;20233;-77
2023/09/10 12:18:29;;;;;;;0.17;0.13;;;32.10;67.70;;;;;;5058964;28;20035;-76
2023/09/10 12:20:58;;;;;;;0.00;0.00;;;32.20;67.30;;;;;;5042664;28;20487;-77
2023/09/10 12:23:24;;;;;;;2.10;2.00;;;32.50;66.90;;;;;;5042298;28;20028;-85
2023/09/10 12:25:56;;;;;;;0.63;0.60;;;32.60;65.80;;;;;;5061592;28;20020;-77
2023/09/10 12:28:23;;;;;;;0.05;0.05;;;30.80;64.60;;;;;;5058368;28;20043;-77
2023/09/10 12:30:50;;;;;;;0.05;0.05;;;32.40;65.80;;;;;;5041107;28;20527;-77
2023/09/10 12:33:20;;;;;;;0.50;0.20;;;32.40;65.40;;;;;;5059626;28;20490;-76
2023/09/10 12:35:46;;;;;;;0.00;0.00;;;32.60;66.20;;;;;;5040813;28;20123;-77
2023/09/10 12:38:16;;;;;;;0.03;0.03;;;33.10;65.60;;;;;;5041094;28;20248;-77
2023/09/10 12:40:42;;;;;;;0.03;0.03;;;33.30;64.60;;;;;;5040573;28;20114;-77
2023/09/10 12:43:09;;;;;;;0.30;0.30;;;33.50;64.10;;;;;;5057459;28;20344;-76
2023/09/10 12:45:35;;;;;;;0.10;0.10;;;33.70;63.70;;;;;;5041949;28;20017;-76
2023/09/10 12:48:02;;;;;;;0.80;0.80;;;33.60;63.60;;;;;;5043603;28;20043;-76
2023/09/10 12:50:28;;;;;;;0.40;0.40;;;33.60;64.20;;;;;;5044509;28;20017;-76
2023/09/10 12:52:55;;;;;;;0.17;0.17;;;33.80;62.90;;;;;;5043595;28;20025;-76